createdAt,value
2023-12-28T00:00:10.479Z,1048.83
2023-12-28T00:00:36.732Z,1048.63
2023-12-28T00:00:57.048Z,1048.63
2023-12-28T00:01:29.449Z,1048.63
2023-12-28T00:02:00.303Z,1048.83
2023-12-28T00:02:32.986Z,1048.83
2023-12-28T00:03:04.664Z,1048.83
2023-12-28T00:03:36.878Z,1048.83
2023-12-28T00:04:08.382Z,1048.63
2023-12-28T00:04:37.896Z,1048.63
2023-12-28T00:04:56.320Z,1048.63
2023-12-28T00:05:29.475Z,1048.63
2023-12-28T00:06:00.430Z,1048.63
2023-12-28T00:06:32.992Z,1048.63
2023-12-28T00:07:04.502Z,1048.73
2023-12-28T00:07:36.393Z,1048.73
2023-12-28T00:08:08.230Z,1048.63
2023-12-28T00:08:36.568Z,1048.83
2023-12-28T00:09:00.790Z,1048.83
2023-12-28T00:09:28.793Z,1048.83
2023-12-28T00:10:01.549Z,1048.83
2023-12-28T00:10:33.002Z,1048.83
2023-12-28T00:11:04.577Z,1048.83
2023-12-28T00:11:37.009Z,1048.83
2023-12-28T00:12:09.743Z,1048.63
2023-12-28T00:12:40.683Z,1048.83
2023-12-28T00:12:57.660Z,1048.83
2023-12-28T00:13:28.693Z,1048.83
2023-12-28T00:14:00.565Z,1048.63
2023-12-28T00:14:33.175Z,1048.63
2023-12-28T00:15:07.339Z,1048.73
2023-12-28T00:15:36.566Z,1048.73
2023-12-28T00:16:08.434Z,1048.93
2023-12-28T00:16:37.246Z,1048.93
2023-12-28T00:16:56.851Z,1048.93
2023-12-28T00:17:28.496Z,1048.93
2023-12-28T00:18:00.902Z,1048.63
2023-12-28T00:18:32.985Z,1048.63
2023-12-28T00:19:04.537Z,1048.73
2023-12-28T00:19:36.389Z,1048.73
2023-12-28T00:20:09.900Z,1048.73
2023-12-28T00:20:36.755Z,1049.03
2023-12-28T00:20:58.270Z,1049.03
2023-12-28T00:21:28.603Z,1049.03
2023-12-28T00:22:00.413Z,1048.63
2023-12-28T00:22:33.023Z,1048.63
2023-12-28T00:23:04.472Z,1048.73
2023-12-28T00:23:36.584Z,1048.73
2023-12-28T00:24:08.588Z,1048.73
2023-12-28T00:24:36.810Z,1048.83
2023-12-28T00:24:56.898Z,1048.83
2023-12-28T00:25:29.032Z,1048.83
2023-12-28T00:26:00.442Z,1048.63
2023-12-28T00:26:32.787Z,1048.63
2023-12-28T00:27:05.519Z,1048.53
2023-12-28T00:27:36.800Z,1048.53
2023-12-28T00:28:08.622Z,1048.53
2023-12-28T00:28:37.052Z,1048.63
2023-12-28T00:28:56.915Z,1048.63
2023-12-28T00:29:28.375Z,1048.63
2023-12-28T00:30:02.109Z,1048.73
2023-12-28T00:30:33.309Z,1048.73
2023-12-28T00:31:04.505Z,1048.93
2023-12-28T00:31:36.524Z,1048.93
2023-12-28T00:32:08.517Z,1048.83
2023-12-28T00:32:37.023Z,1048.73
2023-12-28T00:32:57.006Z,1048.73
2023-12-28T00:33:28.562Z,1048.73
2023-12-28T00:34:01.171Z,1048.83
2023-12-28T00:34:33.346Z,1048.83
2023-12-28T00:35:06.215Z,1048.73
2023-12-28T00:35:37.039Z,1048.73
2023-12-28T00:36:08.299Z,1048.63
2023-12-28T00:36:37.710Z,1048.83
2023-12-28T00:36:57.859Z,1048.83
2023-12-28T00:37:29.484Z,1048.83
2023-12-28T00:38:01.174Z,1048.73
2023-12-28T00:38:33.488Z,1048.73
2023-12-28T00:39:04.631Z,1048.73
2023-12-28T00:39:37.240Z,1048.73
2023-12-28T00:40:09.789Z,1048.83
2023-12-28T00:40:37.477Z,1048.93
2023-12-28T00:40:57.060Z,1048.93
2023-12-28T00:41:28.416Z,1048.93
2023-12-28T00:42:00.385Z,1048.83
2023-12-28T00:42:32.868Z,1048.83
2023-12-28T00:43:04.609Z,1048.83
2023-12-28T00:43:37.153Z,1048.83
2023-12-28T00:44:08.517Z,1048.63
2023-12-28T00:44:37.404Z,1048.63
2023-12-28T00:44:56.866Z,1048.63
2023-12-28T00:45:30.600Z,1048.63
2023-12-28T00:46:00.425Z,1048.53
2023-12-28T00:46:33.664Z,1048.53
2023-12-28T00:47:04.552Z,1048.53
2023-12-28T00:47:37.046Z,1048.53
2023-12-28T00:48:08.526Z,1048.63
2023-12-28T00:48:37.665Z,1048.53
2023-12-28T00:48:56.592Z,1048.53
2023-12-28T00:49:28.594Z,1048.53
2023-12-28T00:50:01.640Z,1048.63
2023-12-28T00:50:33.032Z,1048.63
2023-12-28T00:51:04.682Z,1048.63
2023-12-28T00:51:37.155Z,1048.63
2023-12-28T00:52:08.350Z,1048.93
2023-12-28T00:52:37.179Z,1048.73
2023-12-28T00:52:56.552Z,1048.73
2023-12-28T00:53:28.529Z,1048.73
2023-12-28T00:54:00.656Z,1048.73
2023-12-28T00:54:32.947Z,1048.73
2023-12-28T00:55:06.582Z,1048.63
2023-12-28T00:55:37.222Z,1048.63
2023-12-28T00:56:08.305Z,1048.53
2023-12-28T00:56:37.731Z,1048.53
2023-12-28T00:56:56.622Z,1048.53
2023-12-28T00:57:28.341Z,1048.53
2023-12-28T00:58:00.948Z,1048.42
2023-12-28T00:58:33.020Z,1048.42
2023-12-28T00:59:04.589Z,1048.63
2023-12-28T00:59:37.159Z,1048.63
2023-12-28T01:00:10.409Z,1048.73
2023-12-28T01:00:37.146Z,1048.53
2023-12-28T01:00:57.198Z,1048.53
2023-12-28T01:01:28.474Z,1048.53
2023-12-28T01:02:00.642Z,1048.63
2023-12-28T01:02:32.924Z,1048.63
2023-12-28T01:03:04.668Z,1048.42
2023-12-28T01:03:37.539Z,1048.42
2023-12-28T01:04:08.731Z,1048.63
2023-12-28T01:04:37.196Z,1048.63
2023-12-28T01:04:57.164Z,1048.63
2023-12-28T01:05:29.135Z,1048.63
2023-12-28T01:06:01.329Z,1048.53
2023-12-28T01:06:40.207Z,1048.53
2023-12-28T01:07:05.172Z,1048.53
2023-12-28T01:07:37.050Z,1048.53
2023-12-28T01:08:08.622Z,1048.53
2023-12-28T01:08:37.655Z,1049.03
2023-12-28T01:08:56.610Z,1049.03
2023-12-28T01:09:28.662Z,1049.03
2023-12-28T01:10:01.494Z,1048.73
2023-12-28T01:10:33.139Z,1048.73
2023-12-28T01:11:04.681Z,1048.63
2023-12-28T01:11:36.694Z,1048.63
2023-12-28T01:12:09.540Z,1048.83
2023-12-28T01:12:36.772Z,1048.93
2023-12-28T01:12:56.754Z,1048.93
2023-12-28T01:13:28.353Z,1048.93
2023-12-28T01:14:00.486Z,1048.73
2023-12-28T01:14:32.760Z,1048.73
2023-12-28T01:15:07.261Z,1049.03
2023-12-28T01:15:40.188Z,1049.03
2023-12-28T01:16:10.226Z,1048.83
2023-12-28T01:16:37.812Z,1048.93
2023-12-28T01:16:56.518Z,1048.93
2023-12-28T01:17:28.311Z,1048.93
2023-12-28T01:18:01.139Z,1049.03
2023-12-28T01:18:32.713Z,1049.03
2023-12-28T01:19:04.721Z,1048.93
2023-12-28T01:19:36.539Z,1048.93
2023-12-28T01:20:10.960Z,1049.03
2023-12-28T01:20:38.558Z,1049.03
2023-12-28T01:20:57.026Z,1049.03
2023-12-28T01:21:28.315Z,1049.03
2023-12-28T01:22:00.420Z,1049.03
2023-12-28T01:22:32.713Z,1049.03
2023-12-28T01:23:04.513Z,1048.93
2023-12-28T01:23:36.460Z,1048.93
2023-12-28T01:24:08.329Z,1048.93
2023-12-28T01:24:36.769Z,1048.83
2023-12-28T01:24:56.487Z,1048.83
2023-12-28T01:25:29.223Z,1048.83
2023-12-28T01:26:00.722Z,1049.03
2023-12-28T01:26:32.586Z,1049.03
2023-12-28T01:27:04.574Z,1049.03
2023-12-28T01:27:38.791Z,1049.03
2023-12-28T01:28:10.256Z,1049.03
2023-12-28T01:28:37.663Z,1049.14
2023-12-28T01:28:56.666Z,1049.14
2023-12-28T01:29:28.786Z,1049.14
2023-12-28T01:30:02.328Z,1049.14
2023-12-28T01:30:33.576Z,1049.14
2023-12-28T01:31:04.783Z,1049.24
2023-12-28T01:31:37.096Z,1049.24
2023-12-28T01:32:08.383Z,1049.14
2023-12-28T01:32:37.614Z,1049.03
2023-12-28T01:32:56.458Z,1049.03
2023-12-28T01:33:28.706Z,1049.03
2023-12-28T01:34:00.812Z,1049.14
2023-12-28T01:34:33.379Z,1049.14
2023-12-28T01:35:06.217Z,1049.03
2023-12-28T01:35:36.399Z,1049.03
2023-12-28T01:36:08.452Z,1049.14
2023-12-28T01:36:37.181Z,1049.03
2023-12-28T01:36:57.982Z,1049.03
2023-12-28T01:37:28.694Z,1049.03
2023-12-28T01:38:01.925Z,1048.83
2023-12-28T01:38:32.842Z,1048.83
2023-12-28T01:39:04.413Z,1048.93
2023-12-28T01:39:36.441Z,1048.93
2023-12-28T01:40:09.743Z,1049.03
2023-12-28T01:40:37.028Z,1049.03
2023-12-28T01:40:57.526Z,1049.03
2023-12-28T01:41:28.430Z,1049.03
2023-12-28T01:42:00.485Z,1049.14
2023-12-28T01:42:32.834Z,1049.14
2023-12-28T01:43:04.510Z,1049.03
2023-12-28T01:43:36.888Z,1049.03
2023-12-28T01:44:08.425Z,1049.03
2023-12-28T01:44:36.811Z,1048.83
2023-12-28T01:44:56.872Z,1048.83
2023-12-28T01:45:29.705Z,1048.83
2023-12-28T01:46:00.420Z,1048.73
2023-12-28T01:46:32.804Z,1048.73
2023-12-28T01:47:04.548Z,1048.93
2023-12-28T01:47:36.847Z,1048.93
2023-12-28T01:48:08.512Z,1048.93
2023-12-28T01:48:36.808Z,1048.93
2023-12-28T01:48:56.841Z,1048.93
2023-12-28T01:49:28.548Z,1048.93
2023-12-28T01:50:02.710Z,1048.83
2023-12-28T01:50:33.076Z,1048.83
2023-12-28T01:51:05.172Z,1048.93
2023-12-28T01:51:37.311Z,1048.93
2023-12-28T01:52:08.767Z,1048.73
2023-12-28T01:52:37.187Z,1048.93
2023-12-28T01:52:56.634Z,1048.93
2023-12-28T01:53:28.274Z,1048.93
2023-12-28T01:54:00.522Z,1048.93
2023-12-28T01:54:32.944Z,1048.93
2023-12-28T01:55:06.415Z,1048.73
2023-12-28T01:55:36.536Z,1048.73
2023-12-28T01:56:09.388Z,1048.93
2023-12-28T01:56:37.145Z,1048.83
2023-12-28T01:56:56.605Z,1048.83
2023-12-28T01:57:28.343Z,1048.83
2023-12-28T01:58:00.957Z,1048.73
2023-12-28T01:58:33.257Z,1048.73
2023-12-28T01:59:04.552Z,1048.93
2023-12-28T01:59:36.933Z,1048.93
2023-12-28T02:00:10.456Z,1049.03
2023-12-28T02:00:36.719Z,1048.83
2023-12-28T02:00:57.098Z,1048.83
2023-12-28T02:01:28.471Z,1048.83
2023-12-28T02:02:00.372Z,1048.93
2023-12-28T02:02:32.716Z,1048.93
2023-12-28T02:03:04.651Z,1049.03
2023-12-28T02:03:36.464Z,1049.03
2023-12-28T02:04:08.639Z,1048.93
2023-12-28T02:04:36.641Z,1048.83
2023-12-28T02:04:56.491Z,1048.83
2023-12-28T02:05:29.273Z,1048.83
2023-12-28T02:06:01.065Z,1048.93
2023-12-28T02:06:32.773Z,1048.93
2023-12-28T02:07:04.646Z,1048.93
2023-12-28T02:07:38.786Z,1048.93
2023-12-28T02:08:10.089Z,1048.93
2023-12-28T02:08:37.847Z,1048.63
2023-12-28T02:08:56.489Z,1048.63
2023-12-28T02:09:29.629Z,1048.63
2023-12-28T02:10:01.222Z,1048.83
2023-12-28T02:10:32.820Z,1048.83
2023-12-28T02:11:05.003Z,1048.93
2023-12-28T02:11:36.516Z,1048.93
2023-12-28T02:12:08.242Z,1048.83
2023-12-28T02:12:36.811Z,1048.63
2023-12-28T02:12:56.357Z,1048.63
2023-12-28T02:13:28.348Z,1048.63
2023-12-28T02:14:00.527Z,1048.63
2023-12-28T02:14:32.808Z,1048.63
2023-12-28T02:15:07.435Z,1048.83
2023-12-28T02:15:37.799Z,1048.83
2023-12-28T02:16:09.142Z,1048.83
2023-12-28T02:16:38.217Z,1048.53
2023-12-28T02:16:58.166Z,1048.53
2023-12-28T02:17:30.280Z,1048.53
2023-12-28T02:18:02.611Z,1048.83
2023-12-28T02:18:34.558Z,1048.83
2023-12-28T02:19:05.885Z,1048.93
2023-12-28T02:19:37.606Z,1048.93
2023-12-28T02:20:12.613Z,1048.93
2023-12-28T02:20:39.662Z,1048.93
2023-12-28T02:21:01.189Z,1048.93
2023-12-28T02:21:31.421Z,1048.93
2023-12-28T02:22:03.137Z,1048.83
2023-12-28T02:22:34.723Z,1048.83
2023-12-28T02:23:06.502Z,1048.93
2023-12-28T02:23:38.092Z,1048.93
2023-12-28T02:24:09.626Z,1048.93
2023-12-28T02:24:38.416Z,1048.73
2023-12-28T02:24:58.733Z,1048.73
2023-12-28T02:25:30.753Z,1048.73
2023-12-28T02:26:01.938Z,1048.63
2023-12-28T02:26:35.385Z,1048.63
2023-12-28T02:27:08.871Z,1048.93
2023-12-28T02:27:39.495Z,1048.93
2023-12-28T02:28:11.323Z,1049.03
2023-12-28T02:28:38.051Z,1048.93
2023-12-28T02:28:58.435Z,1048.93
2023-12-28T02:29:29.423Z,1048.93
2023-12-28T02:30:06.444Z,1049.03
2023-12-28T02:30:34.339Z,1049.03
2023-12-28T02:31:06.813Z,1049.14
2023-12-28T02:31:37.637Z,1049.14
2023-12-28T02:32:09.786Z,1048.93
2023-12-28T02:32:36.994Z,1049.14
2023-12-28T02:32:57.482Z,1049.14
2023-12-28T02:33:28.647Z,1049.14
2023-12-28T02:34:00.957Z,1049.24
2023-12-28T02:34:32.861Z,1049.24
2023-12-28T02:35:07.173Z,1049.03
2023-12-28T02:35:36.889Z,1049.03
2023-12-28T02:36:08.526Z,1049.14
2023-12-28T02:36:36.822Z,1049.03
2023-12-28T02:36:56.704Z,1049.03
2023-12-28T02:37:28.531Z,1049.03
2023-12-28T02:38:01.061Z,1049.14
2023-12-28T02:38:32.708Z,1049.14
2023-12-28T02:39:05.411Z,1049.14
2023-12-28T02:39:37.067Z,1049.14
2023-12-28T02:40:09.517Z,1049.03
2023-12-28T02:40:36.708Z,1049.14
2023-12-28T02:40:56.943Z,1049.14
2023-12-28T02:41:28.558Z,1049.14
2023-12-28T02:42:00.869Z,1049.24
2023-12-28T02:42:32.737Z,1049.24
2023-12-28T02:43:04.695Z,1049.14
2023-12-28T02:43:36.804Z,1049.14
2023-12-28T02:44:08.410Z,1049.14
2023-12-28T02:44:36.835Z,1049.44
2023-12-28T02:44:56.388Z,1049.44
2023-12-28T02:45:30.725Z,1049.44
2023-12-28T02:46:00.477Z,1049.34
2023-12-28T02:46:32.686Z,1049.34
2023-12-28T02:47:04.551Z,1049.14
2023-12-28T02:47:37.034Z,1049.14
2023-12-28T02:48:08.736Z,1049.14
2023-12-28T02:48:36.958Z,1049.24
2023-12-28T02:48:56.687Z,1049.24
2023-12-28T02:49:28.433Z,1049.24
2023-12-28T02:50:01.712Z,1049.14
2023-12-28T02:50:32.755Z,1049.14
2023-12-28T02:51:04.501Z,1049.03
2023-12-28T02:51:37.390Z,1049.03
2023-12-28T02:52:08.248Z,1049.14
2023-12-28T02:52:38.036Z,1049.14
2023-12-28T02:52:56.445Z,1049.14
2023-12-28T02:53:28.559Z,1049.14
2023-12-28T02:54:00.596Z,1049.14
2023-12-28T02:54:32.683Z,1049.14
2023-12-28T02:55:06.962Z,1049.14
2023-12-28T02:55:36.667Z,1049.14
2023-12-28T02:56:08.334Z,1049.34
2023-12-28T02:56:36.697Z,1049.03
2023-12-28T02:56:56.533Z,1049.03
2023-12-28T02:57:28.575Z,1049.03
2023-12-28T02:58:01.900Z,1049.03
2023-12-28T02:58:32.880Z,1049.03
2023-12-28T02:59:04.608Z,1049.24
2023-12-28T02:59:36.691Z,1049.24
2023-12-28T03:00:10.187Z,1049.14
2023-12-28T03:00:37.382Z,1048.83
2023-12-28T03:00:57.523Z,1048.83
2023-12-28T03:01:28.539Z,1048.83
2023-12-28T03:02:00.471Z,1049.24
2023-12-28T03:02:32.710Z,1049.24
2023-12-28T03:03:04.591Z,1049.14
2023-12-28T03:03:36.459Z,1049.14
2023-12-28T03:04:08.411Z,1048.83
2023-12-28T03:04:36.997Z,1049.24
2023-12-28T03:04:56.718Z,1049.24
2023-12-28T03:05:29.869Z,1049.24
2023-12-28T03:06:00.620Z,1048.93
2023-12-28T03:06:33.050Z,1048.93
2023-12-28T03:07:04.478Z,1049.03
2023-12-28T03:07:36.567Z,1049.03
2023-12-28T03:08:08.388Z,1048.93
2023-12-28T03:08:36.831Z,1048.93
2023-12-28T03:08:56.614Z,1048.93
2023-12-28T03:09:28.509Z,1048.93
2023-12-28T03:10:02.580Z,1048.93
2023-12-28T03:10:32.896Z,1048.93
2023-12-28T03:11:04.471Z,1048.93
2023-12-28T03:11:37.030Z,1048.93
2023-12-28T03:12:08.533Z,1049.03
2023-12-28T03:12:36.710Z,1049.14
2023-12-28T03:12:56.526Z,1049.14
2023-12-28T03:13:28.331Z,1049.14
2023-12-28T03:14:00.403Z,1048.93
2023-12-28T03:14:32.697Z,1048.93
2023-12-28T03:15:07.656Z,1048.73
2023-12-28T03:15:36.817Z,1048.73
2023-12-28T03:16:10.525Z,1048.93
2023-12-28T03:16:38.091Z,1049.03
2023-12-28T03:16:58.091Z,1049.03
2023-12-28T03:17:28.468Z,1049.03
2023-12-28T03:18:00.941Z,1049.14
2023-12-28T03:18:33.383Z,1049.14
2023-12-28T03:19:04.537Z,1049.03
2023-12-28T03:19:36.378Z,1049.03
2023-12-28T03:20:09.503Z,1049.03
2023-12-28T03:20:37.303Z,1049.14
2023-12-28T03:20:57.367Z,1049.14
2023-12-28T03:21:29.850Z,1049.14
2023-12-28T03:22:00.596Z,1049.24
2023-12-28T03:22:32.898Z,1049.24
2023-12-28T03:23:04.732Z,1049.14
2023-12-28T03:23:36.380Z,1049.14
2023-12-28T03:24:08.448Z,1049.14
2023-12-28T03:24:37.151Z,1049.03
2023-12-28T03:24:56.748Z,1049.03
2023-12-28T03:25:30.289Z,1049.03
2023-12-28T03:26:01.699Z,1048.83
2023-12-28T03:26:33.790Z,1048.83
2023-12-28T03:27:04.797Z,1049.03
2023-12-28T03:27:36.401Z,1049.03
2023-12-28T03:28:08.485Z,1048.93
2023-12-28T03:28:36.847Z,1048.83
2023-12-28T03:28:56.389Z,1048.83
2023-12-28T03:29:29.525Z,1048.83
2023-12-28T03:30:02.014Z,1048.93
2023-12-28T03:30:32.818Z,1048.93
2023-12-28T03:31:04.691Z,1049.14
2023-12-28T03:31:36.473Z,1049.14
2023-12-28T03:32:08.414Z,1049.14
2023-12-28T03:32:37.139Z,1049.14
2023-12-28T03:32:56.551Z,1049.14
2023-12-28T03:33:28.401Z,1049.14
2023-12-28T03:34:00.684Z,1049.03
2023-12-28T03:34:32.809Z,1049.03
2023-12-28T03:35:06.165Z,1049.03
2023-12-28T03:35:37.291Z,1049.03
2023-12-28T03:36:08.426Z,1048.73
2023-12-28T03:36:38.033Z,1049.03
2023-12-28T03:36:56.987Z,1049.03
2023-12-28T03:37:28.231Z,1049.03
2023-12-28T03:38:00.958Z,1048.93
2023-12-28T03:38:32.864Z,1048.93
2023-12-28T03:39:04.492Z,1048.93
2023-12-28T03:39:37.283Z,1048.93
2023-12-28T03:40:09.562Z,1048.73
2023-12-28T03:40:36.716Z,1048.63
2023-12-28T03:40:57.061Z,1048.63
2023-12-28T03:41:28.505Z,1048.63
2023-12-28T03:42:00.836Z,1049.14
2023-12-28T03:42:32.972Z,1049.14
2023-12-28T03:43:04.550Z,1049.03
2023-12-28T03:43:36.473Z,1049.03
2023-12-28T03:44:08.271Z,1048.83
2023-12-28T03:44:37.251Z,1048.83
2023-12-28T03:44:56.460Z,1048.83
2023-12-28T03:45:29.825Z,1048.83
2023-12-28T03:46:00.699Z,1049.03
2023-12-28T03:46:32.689Z,1049.03
2023-12-28T03:47:04.464Z,1048.93
2023-12-28T03:47:37.164Z,1048.93
2023-12-28T03:48:08.394Z,1049.03
2023-12-28T03:48:37.426Z,1049.03
2023-12-28T03:48:56.681Z,1049.03
2023-12-28T03:49:28.624Z,1049.03
2023-12-28T03:50:01.883Z,1049.03
2023-12-28T03:50:32.908Z,1049.03
2023-12-28T03:51:04.689Z,1049.03
2023-12-28T03:51:36.975Z,1049.03
2023-12-28T03:52:08.325Z,1048.83
2023-12-28T03:52:36.937Z,1048.93
2023-12-28T03:52:56.380Z,1048.93
2023-12-28T03:53:28.199Z,1048.93
2023-12-28T03:54:01.467Z,1048.93
2023-12-28T03:54:32.827Z,1048.93
2023-12-28T03:55:06.849Z,1048.63
2023-12-28T03:55:37.159Z,1048.63
2023-12-28T03:56:08.616Z,1048.73
2023-12-28T03:56:36.884Z,1048.73
2023-12-28T03:56:56.509Z,1048.73
2023-12-28T03:57:28.351Z,1048.73
2023-12-28T03:58:00.922Z,1048.73
2023-12-28T03:58:33.048Z,1048.73
2023-12-28T03:59:04.512Z,1048.32
2023-12-28T03:59:36.364Z,1048.32
2023-12-28T04:00:11.001Z,1048.32
2023-12-28T04:00:37.352Z,1048.73
2023-12-28T04:00:57.194Z,1048.73
2023-12-28T04:01:28.374Z,1048.73
2023-12-28T04:02:00.864Z,1048.42
2023-12-28T04:02:32.790Z,1048.42
2023-12-28T04:03:04.608Z,1048.32
2023-12-28T04:03:36.638Z,1048.32
2023-12-28T04:04:08.724Z,1048.53
2023-12-28T04:04:36.805Z,1048.53
2023-12-28T04:04:56.340Z,1048.53
2023-12-28T04:05:28.939Z,1048.53
2023-12-28T04:06:00.457Z,1048.53
2023-12-28T04:06:32.740Z,1048.53
2023-12-28T04:07:04.495Z,1048.53
2023-12-28T04:07:36.510Z,1048.53
2023-12-28T04:08:08.424Z,1048.42
2023-12-28T04:08:37.008Z,1048.63
2023-12-28T04:08:57.063Z,1048.63
2023-12-28T04:09:28.685Z,1048.63
2023-12-28T04:10:01.708Z,1048.53
2023-12-28T04:10:32.895Z,1048.53
2023-12-28T04:11:06.273Z,1048.42
2023-12-28T04:11:36.417Z,1048.42
2023-12-28T04:12:08.244Z,1048.73
2023-12-28T04:12:36.986Z,1048.93
2023-12-28T04:12:56.518Z,1048.93
2023-12-28T04:13:28.619Z,1048.93
2023-12-28T04:14:00.817Z,1048.73
2023-12-28T04:14:32.992Z,1048.73
2023-12-28T04:15:07.025Z,1048.73
2023-12-28T04:15:36.672Z,1048.73
2023-12-28T04:16:08.338Z,1048.83
2023-12-28T04:16:36.724Z,1048.83
2023-12-28T04:16:56.522Z,1048.83
2023-12-28T04:17:28.356Z,1048.83
2023-12-28T04:18:01.323Z,1048.83
2023-12-28T04:18:34.272Z,1048.83
2023-12-28T04:19:04.627Z,1048.93
2023-12-28T04:19:37.249Z,1048.93
2023-12-28T04:20:09.392Z,1049.03
2023-12-28T04:20:37.764Z,1049.24
2023-12-28T04:20:57.114Z,1049.24
2023-12-28T04:21:28.427Z,1049.24
2023-12-28T04:22:02.096Z,1049.14
2023-12-28T04:22:32.674Z,1049.14
2023-12-28T04:23:04.481Z,1049.14
2023-12-28T04:23:36.654Z,1049.14
2023-12-28T04:24:08.466Z,1049.03
2023-12-28T04:24:38.192Z,1049.14
2023-12-28T04:24:57.891Z,1049.14
2023-12-28T04:25:30.344Z,1049.14
2023-12-28T04:26:01.664Z,1049.14
2023-12-28T04:26:32.751Z,1049.14
2023-12-28T04:27:04.448Z,1049.03
2023-12-28T04:27:37.378Z,1049.03
2023-12-28T04:28:08.649Z,1049.14
2023-12-28T04:28:36.983Z,1049.24
2023-12-28T04:28:56.511Z,1049.24
2023-12-28T04:29:28.422Z,1049.24
2023-12-28T04:30:02.062Z,1049.14
2023-12-28T04:30:33.080Z,1049.14
2023-12-28T04:31:04.635Z,1049.14
2023-12-28T04:31:37.029Z,1049.14
2023-12-28T04:32:08.494Z,1049.14
2023-12-28T04:32:37.030Z,1049.03
2023-12-28T04:32:57.220Z,1049.03
2023-12-28T04:33:28.624Z,1049.03
2023-12-28T04:34:01.316Z,1049.24
2023-12-28T04:34:32.586Z,1049.24
2023-12-28T04:35:06.436Z,1049.24
2023-12-28T04:35:36.592Z,1049.24
2023-12-28T04:36:08.413Z,1049.03
2023-12-28T04:36:39.753Z,1049.14
2023-12-28T04:36:57.923Z,1049.14
2023-12-28T04:37:29.414Z,1049.14
2023-12-28T04:38:00.950Z,1049.14
2023-12-28T04:38:33.104Z,1049.14
2023-12-28T04:39:04.573Z,1048.83
2023-12-28T04:39:36.425Z,1048.83
2023-12-28T04:40:10.756Z,1048.93
2023-12-28T04:40:36.645Z,1048.83
2023-12-28T04:40:57.339Z,1048.83
2023-12-28T04:41:28.402Z,1048.83
2023-12-28T04:42:00.656Z,1049.14
2023-12-28T04:42:32.985Z,1049.14
2023-12-28T04:43:04.417Z,1048.93
2023-12-28T04:43:37.480Z,1048.93
2023-12-28T04:44:08.300Z,1049.03
2023-12-28T04:44:37.073Z,1048.93
2023-12-28T04:44:56.595Z,1048.93
2023-12-28T04:45:29.396Z,1048.93
2023-12-28T04:46:00.551Z,1048.93
2023-12-28T04:46:32.953Z,1048.93
2023-12-28T04:47:04.459Z,1048.83
2023-12-28T04:47:36.561Z,1048.83
2023-12-28T04:48:08.448Z,1048.93
2023-12-28T04:48:36.944Z,1048.93
2023-12-28T04:48:56.736Z,1048.93
2023-12-28T04:49:28.516Z,1048.93
2023-12-28T04:50:02.265Z,1048.93
2023-12-28T04:50:32.788Z,1048.93
2023-12-28T04:51:04.515Z,1049.14
2023-12-28T04:51:36.751Z,1049.14
2023-12-28T04:52:08.606Z,1048.73
2023-12-28T04:52:36.806Z,1049.14
2023-12-28T04:52:56.477Z,1049.14
2023-12-28T04:53:28.502Z,1049.14
2023-12-28T04:54:01.032Z,1049.24
2023-12-28T04:54:33.737Z,1049.24
2023-12-28T04:55:07.768Z,1049.14
2023-12-28T04:55:38.307Z,1049.14
2023-12-28T04:56:09.398Z,1049.24
2023-12-28T04:56:36.987Z,1049.03
2023-12-28T04:56:56.468Z,1049.03
2023-12-28T04:57:28.329Z,1049.03
2023-12-28T04:58:01.417Z,1048.93
2023-12-28T04:58:33.434Z,1048.93
2023-12-28T04:59:04.443Z,1049.24
2023-12-28T04:59:37.571Z,1049.24
2023-12-28T05:00:10.284Z,1049.14
2023-12-28T05:00:37.873Z,1048.93
2023-12-28T05:00:57.411Z,1048.93
2023-12-28T05:01:28.414Z,1048.93
2023-12-28T05:02:00.657Z,1049.34
2023-12-28T05:02:32.824Z,1049.34
2023-12-28T05:03:04.496Z,1049.34
2023-12-28T05:03:36.398Z,1049.34
2023-12-28T05:04:08.449Z,1049.34
2023-12-28T05:04:36.824Z,1049.24
2023-12-28T05:04:56.722Z,1049.24
2023-12-28T05:05:29.466Z,1049.24
2023-12-28T05:06:00.691Z,1049.24
2023-12-28T05:06:33.234Z,1049.24
2023-12-28T05:07:04.623Z,1049.34
2023-12-28T05:07:36.786Z,1049.34
2023-12-28T05:08:08.360Z,1049.34
2023-12-28T05:08:37.367Z,1049.44
2023-12-28T05:08:56.640Z,1049.44
2023-12-28T05:09:28.652Z,1049.44
2023-12-28T05:10:01.413Z,1049.14
2023-12-28T05:10:32.806Z,1049.14
2023-12-28T05:11:04.531Z,1049.34
2023-12-28T05:11:36.277Z,1049.34
2023-12-28T05:12:08.362Z,1049.34
2023-12-28T05:12:43.750Z,1049.14
2023-12-28T05:13:28.770Z,1049.14
2023-12-28T05:14:00.708Z,1049.34
2023-12-28T05:14:33.150Z,1049.34
2023-12-28T05:15:07.149Z,1049.34
2023-12-28T05:15:37.047Z,1049.34
2023-12-28T05:16:08.355Z,1049.34
2023-12-28T05:16:36.812Z,1049.44
2023-12-28T05:16:56.815Z,1049.44
2023-12-28T05:17:28.740Z,1049.44
2023-12-28T05:18:01.858Z,1049.34
2023-12-28T05:18:33.208Z,1049.34
2023-12-28T05:19:04.747Z,1049.44
2023-12-28T05:19:36.566Z,1049.44
2023-12-28T05:20:09.715Z,1049.44
2023-12-28T05:20:38.921Z,1049.54
2023-12-28T05:20:58.353Z,1049.54
2023-12-28T05:21:28.529Z,1049.54
2023-12-28T05:22:00.688Z,1049.54
2023-12-28T05:22:32.869Z,1049.54
2023-12-28T05:23:04.656Z,1049.71
2023-12-28T05:23:36.461Z,1049.71
2023-12-28T05:24:09.219Z,1049.44
2023-12-28T05:24:36.987Z,1049.61
2023-12-28T05:24:56.595Z,1049.61
2023-12-28T05:25:30.377Z,1049.61
2023-12-28T05:26:00.477Z,1049.44
2023-12-28T05:26:32.820Z,1049.44
2023-12-28T05:27:04.466Z,1049.54
2023-12-28T05:27:37.121Z,1049.54
2023-12-28T05:28:08.419Z,1049.44
2023-12-28T05:28:36.862Z,1049.34
2023-12-28T05:28:56.597Z,1049.34
2023-12-28T05:29:28.823Z,1049.34
2023-12-28T05:30:02.066Z,1049.24
2023-12-28T05:30:33.069Z,1049.24
2023-12-28T05:31:04.598Z,1049.44
2023-12-28T05:31:38.377Z,1049.44
2023-12-28T05:32:09.530Z,1049.34
2023-12-28T05:32:36.850Z,1049.03
2023-12-28T05:32:56.706Z,1049.03
2023-12-28T05:33:28.846Z,1049.03
2023-12-28T05:34:00.770Z,1049.34
2023-12-28T05:34:33.202Z,1049.34
2023-12-28T05:35:06.416Z,1049.34
2023-12-28T05:35:37.000Z,1049.34
2023-12-28T05:36:10.872Z,1049.54
2023-12-28T05:36:36.770Z,1049.44
2023-12-28T05:36:56.433Z,1049.44
2023-12-28T05:37:28.443Z,1049.44
2023-12-28T05:38:01.177Z,1049.44
2023-12-28T05:38:33.129Z,1049.44
2023-12-28T05:39:04.597Z,1049.34
2023-12-28T05:39:36.854Z,1049.34
2023-12-28T05:40:09.620Z,1049.24
2023-12-28T05:40:36.967Z,1049.34
2023-12-28T05:40:57.055Z,1049.34
2023-12-28T05:41:28.578Z,1049.34
2023-12-28T05:42:00.851Z,1049.54
2023-12-28T05:42:34.044Z,1049.54
2023-12-28T05:43:04.505Z,1049.71
2023-12-28T05:43:37.462Z,1049.71
2023-12-28T05:44:08.652Z,1049.61
2023-12-28T05:44:37.341Z,1049.61
2023-12-28T05:44:56.465Z,1049.61
2023-12-28T05:45:29.537Z,1049.61
2023-12-28T05:46:01.057Z,1049.61
2023-12-28T05:46:32.752Z,1049.61
2023-12-28T05:47:04.539Z,1049.91
2023-12-28T05:47:36.439Z,1049.91
2023-12-28T05:48:08.498Z,1049.81
2023-12-28T05:48:37.192Z,1050.12
2023-12-28T05:48:56.410Z,1050.12
2023-12-28T05:49:28.440Z,1050.12
2023-12-28T05:50:01.500Z,1049.91
2023-12-28T05:50:32.826Z,1049.91
2023-12-28T05:51:04.468Z,1050.02
2023-12-28T05:51:36.892Z,1050.02
2023-12-28T05:52:08.658Z,1050.22
2023-12-28T05:52:36.991Z,1050.02
2023-12-28T05:52:56.435Z,1050.02
2023-12-28T05:53:28.776Z,1050.02
2023-12-28T05:54:00.467Z,1049.91
2023-12-28T05:54:32.890Z,1049.91
2023-12-28T05:55:06.516Z,1049.71
2023-12-28T05:55:36.307Z,1049.71
2023-12-28T05:56:08.329Z,1049.61
2023-12-28T05:56:36.739Z,1049.71
2023-12-28T05:56:57.372Z,1049.71
2023-12-28T05:57:29.607Z,1049.71
2023-12-28T05:58:01.837Z,1049.61
2023-12-28T05:58:32.756Z,1049.61
2023-12-28T05:59:04.432Z,1049.81
2023-12-28T05:59:36.894Z,1049.81
2023-12-28T06:00:10.300Z,1049.91
2023-12-28T06:00:36.981Z,1049.91
2023-12-28T06:00:58.011Z,1049.91
2023-12-28T06:01:28.497Z,1049.91
2023-12-28T06:02:01.145Z,1049.91
2023-12-28T06:02:32.774Z,1049.91
2023-12-28T06:03:04.697Z,1050.02